sensor_id;sensor_type;location;lat;lon;timestamp;temperature;humidity
72128;DHT22;60000;51.030;7.024;2023-10-13T00:00:21;16.57;94.06
72128;DHT22;60000;51.030;7.024;2023-10-13T00:02:58;16.56;94.02
72128;DHT22;60000;51.030;7.024;2023-10-13T00:05:30;16.57;94.01
72128;DHT22;60000;51.030;7.024;2023-10-13T00:08:02;16.56;94.00
72128;DHT22;60000;51.030;7.024;2023-10-13T00:10:31;16.53;94.02
72128;DHT22;60000;51.030;7.024;2023-10-13T00:12:59;16.56;94.00
72128;DHT22;60000;51.030;7.024;2023-10-13T00:15:51;16.55;93.96
72128;DHT22;60000;51.030;7.024;2023-10-13T00:18:26;16.55;93.97
72128;DHT22;60000;51.030;7.024;2023-10-13T00:20:52;16.53;93.98
72128;DHT22;60000;51.030;7.024;2023-10-13T00:23:21;16.57;93.96
72128;DHT22;60000;51.030;7.024;2023-10-13T00:25:48;16.57;93.97
72128;DHT22;60000;51.030;7.024;2023-10-13T00:28:23;16.60;93.88
72128;DHT22;60000;51.030;7.024;2023-10-13T00:30:50;16.60;93.88
72128;DHT22;60000;51.030;7.024;2023-10-13T00:33:18;16.60;93.83
72128;DHT22;60000;51.030;7.024;2023-10-13T00:35:47;16.63;93.83
72128;DHT22;60000;51.030;7.024;2023-10-13T00:38:16;16.61;93.81
72128;DHT22;60000;51.030;7.024;2023-10-13T00:40:43;16.61;93.77
72128;DHT22;60000;51.030;7.024;2023-10-13T00:43:18;16.61;93.78
72128;DHT22;60000;51.030;7.024;2023-10-13T00:45:48;16.66;93.77
72128;DHT22;60000;51.030;7.024;2023-10-13T00:48:21;16.66;93.76
72128;DHT22;60000;51.030;7.024;2023-10-13T00:50:54;16.63;93.75
72128;DHT22;60000;51.030;7.024;2023-10-13T00:53:22;16.64;93.70
72128;DHT22;60000;51.030;7.024;2023-10-13T00:55:48;16.64;93.69
72128;DHT22;60000;51.030;7.024;2023-10-13T00:58:14;16.64;93.70
72128;DHT22;60000;51.030;7.024;2023-10-13T01:00:40;16.64;93.70
72128;DHT22;60000;51.030;7.024;2023-10-13T01:03:12;16.66;93.71
72128;DHT22;60000;51.030;7.024;2023-10-13T01:05:39;16.67;93.69
72128;DHT22;60000;51.030;7.024;2023-10-13T01:08:05;16.69;93.72
72128;DHT22;60000;51.030;7.024;2023-10-13T01:10:35;16.70;93.69
72128;DHT22;60000;51.030;7.024;2023-10-13T01:13:02;16.69;93.64
72128;DHT22;60000;51.030;7.024;2023-10-13T01:15:29;16.70;93.60
72128;DHT22;60000;51.030;7.024;2023-10-13T01:18:08;16.69;93.55
72128;DHT22;60000;51.030;7.024;2023-10-13T01:20:37;16.69;93.56
72128;DHT22;60000;51.030;7.024;2023-10-13T01:23:12;16.69;93.46
72128;DHT22;60000;51.030;7.024;2023-10-13T01:25:45;16.70;93.52
72128;DHT22;60000;51.030;7.024;2023-10-13T01:28:11;16.71;93.51
72128;DHT22;60000;51.030;7.024;2023-10-13T01:30:41;16.71;93.53
72128;DHT22;60000;51.030;7.024;2023-10-13T01:33:07;16.71;93.53
72128;DHT22;60000;51.030;7.024;2023-10-13T01:35:34;16.71;93.55
72128;DHT22;60000;51.030;7.024;2023-10-13T01:38:08;16.69;93.52
72128;DHT22;60000;51.030;7.024;2023-10-13T01:40:34;16.73;93.50
72128;DHT22;60000;51.030;7.024;2023-10-13T01:43:00;16.70;93.48
72128;DHT22;60000;51.030;7.024;2023-10-13T01:45:25;16.73;93.43
72128;DHT22;60000;51.030;7.024;2023-10-13T01:47:54;16.73;93.50
72128;DHT22;60000;51.030;7.024;2023-10-13T01:50:20;16.73;93.49
72128;DHT22;60000;51.030;7.024;2023-10-13T01:52:55;16.76;93.50
72128;DHT22;60000;51.030;7.024;2023-10-13T01:55:37;16.76;93.55
72128;DHT22;60000;51.030;7.024;2023-10-13T01:58:04;16.74;93.49
72128;DHT22;60000;51.030;7.024;2023-10-13T02:00:39;16.76;93.48
72128;DHT22;60000;51.030;7.024;2023-10-13T02:03:07;16.76;93.47
72128;DHT22;60000;51.030;7.024;2023-10-13T02:05:39;16.80;93.43
72128;DHT22;60000;51.030;7.024;2023-10-13T02:08:08;16.79;93.39
72128;DHT22;60000;51.030;7.024;2023-10-13T02:10:36;16.81;93.38
72128;DHT22;60000;51.030;7.024;2023-10-13T02:13:10;16.83;93.43
72128;DHT22;60000;51.030;7.024;2023-10-13T02:15:40;16.81;93.41
72128;DHT22;60000;51.030;7.024;2023-10-13T02:18:08;16.81;93.43
72128;DHT22;60000;51.030;7.024;2023-10-13T02:20:34;16.81;93.36
72128;DHT22;60000;51.030;7.024;2023-10-13T02:23:06;16.84;93.37
72128;DHT22;60000;51.030;7.024;2023-10-13T02:25:35;16.83;93.39
72128;DHT22;60000;51.030;7.024;2023-10-13T02:28:07;16.83;93.38
72128;DHT22;60000;51.030;7.024;2023-10-13T02:30:47;16.85;93.40
72128;DHT22;60000;51.030;7.024;2023-10-13T02:33:16;16.87;93.30
72128;DHT22;60000;51.030;7.024;2023-10-13T02:35:55;16.88;93.34
72128;DHT22;60000;51.030;7.024;2023-10-13T02:38:22;16.90;93.30
72128;DHT22;60000;51.030;7.024;2023-10-13T02:41:14;16.88;93.26
72128;DHT22;60000;51.030;7.024;2023-10-13T02:43:50;16.90;93.35
72128;DHT22;60000;51.030;7.024;2023-10-13T02:46:15;16.87;93.34
72128;DHT22;60000;51.030;7.024;2023-10-13T02:48:41;16.91;93.33
72128;DHT22;60000;51.030;7.024;2023-10-13T02:51:08;16.91;93.32
72128;DHT22;60000;51.030;7.024;2023-10-13T02:53:46;16.90;93.35
72128;DHT22;60000;51.030;7.024;2023-10-13T02:56:15;16.90;93.37
72128;DHT22;60000;51.030;7.024;2023-10-13T02:58:51;16.91;93.32
72128;DHT22;60000;51.030;7.024;2023-10-13T03:01:22;16.88;93.34
72128;DHT22;60000;51.030;7.024;2023-10-13T03:03:53;16.92;93.37
72128;DHT22;60000;51.030;7.024;2023-10-13T03:06:20;16.90;93.42
72128;DHT22;60000;51.030;7.024;2023-10-13T03:08:59;16.97;93.32
72128;DHT22;60000;51.030;7.024;2023-10-13T03:11:41;16.95;93.29
72128;DHT22;60000;51.030;7.024;2023-10-13T03:14:14;16.94;93.37
72128;DHT22;60000;51.030;7.024;2023-10-13T03:16:56;16.97;93.33
72128;DHT22;60000;51.030;7.024;2023-10-13T03:19:30;16.95;93.41
72128;DHT22;60000;51.030;7.024;2023-10-13T03:21:59;16.94;93.35
72128;DHT22;60000;51.030;7.024;2023-10-13T03:24:34;16.98;93.29
72128;DHT22;60000;51.030;7.024;2023-10-13T03:29:27;17.00;93.29
72128;DHT22;60000;51.030;7.024;2023-10-13T03:31:55;17.01;93.21
72128;DHT22;60000;51.030;7.024;2023-10-13T03:34:32;16.98;93.22
72128;DHT22;60000;51.030;7.024;2023-10-13T03:36:59;17.01;93.04
72128;DHT22;60000;51.030;7.024;2023-10-13T03:39:25;17.03;93.09
72128;DHT22;60000;51.030;7.024;2023-10-13T03:41:56;17.00;93.08
72128;DHT22;60000;51.030;7.024;2023-10-13T03:44:22;17.01;93.10
72128;DHT22;60000;51.030;7.024;2023-10-13T03:46:47;17.01;93.13
72128;DHT22;60000;51.030;7.024;2023-10-13T03:49:16;17.03;93.13
72128;DHT22;60000;51.030;7.024;2023-10-13T03:51:46;17.04;93.16
72128;DHT22;60000;51.030;7.024;2023-10-13T03:54:13;17.06;93.16
72128;DHT22;60000;51.030;7.024;2023-10-13T03:56:40;17.03;93.08
72128;DHT22;60000;51.030;7.024;2023-10-13T03:59:07;17.01;93.12
72128;DHT22;60000;51.030;7.024;2023-10-13T04:01:38;17.03;93.14
72128;DHT22;60000;51.030;7.024;2023-10-13T04:04:24;17.01;93.15
72128;DHT22;60000;51.030;7.024;2023-10-13T04:07:08;17.08;93.10
72128;DHT22;60000;51.030;7.024;2023-10-13T04:09:37;17.07;93.05
72128;DHT22;60000;51.030;7.024;2023-10-13T04:12:12;17.04;93.01
72128;DHT22;60000;51.030;7.024;2023-10-13T04:14:40;17.08;93.10
72128;DHT22;60000;51.030;7.024;2023-10-13T04:17:37;17.10;93.08
72128;DHT22;60000;51.030;7.024;2023-10-13T04:20:09;17.08;93.12
72128;DHT22;60000;51.030;7.024;2023-10-13T04:22:36;17.07;93.10
72128;DHT22;60000;51.030;7.024;2023-10-13T04:25:17;17.10;93.13
72128;DHT22;60000;51.030;7.024;2023-10-13T04:28:02;17.11;93.17
72128;DHT22;60000;51.030;7.024;2023-10-13T04:30:37;17.08;93.16
72128;DHT22;60000;51.030;7.024;2023-10-13T04:33:31;17.12;93.20
72128;DHT22;60000;51.030;7.024;2023-10-13T04:36:06;17.15;93.17
72128;DHT22;60000;51.030;7.024;2023-10-13T04:38:54;17.15;93.19
72128;DHT22;60000;51.030;7.024;2023-10-13T04:41:27;17.14;93.21
72128;DHT22;60000;51.030;7.024;2023-10-13T04:44:15;17.17;93.27
72128;DHT22;60000;51.030;7.024;2023-10-13T04:46:57;17.17;93.31
72128;DHT22;60000;51.030;7.024;2023-10-13T04:49:33;17.15;93.35
72128;DHT22;60000;51.030;7.024;2023-10-13T04:52:15;17.18;93.35
72128;DHT22;60000;51.030;7.024;2023-10-13T04:55:00;17.17;93.40
72128;DHT22;60000;51.030;7.024;2023-10-13T04:57:41;17.17;93.40
72128;DHT22;60000;51.030;7.024;2023-10-13T05:00:15;17.17;93.42
72128;DHT22;60000;51.030;7.024;2023-10-13T05:02:47;17.18;93.50
72128;DHT22;60000;51.030;7.024;2023-10-13T05:05:24;17.14;93.52
72128;DHT22;60000;51.030;7.024;2023-10-13T05:07:50;17.18;93.55
72128;DHT22;60000;51.030;7.024;2023-10-13T05:10:35;17.18;93.59
72128;DHT22;60000;51.030;7.024;2023-10-13T05:13:19;17.19;93.63
72128;DHT22;60000;51.030;7.024;2023-10-13T05:16:03;17.21;93.69
72128;DHT22;60000;51.030;7.024;2023-10-13T05:18:47;17.19;93.71
72128;DHT22;60000;51.030;7.024;2023-10-13T05:21:31;17.21;93.77
72128;DHT22;60000;51.030;7.024;2023-10-13T05:24:15;17.22;93.80
72128;DHT22;60000;51.030;7.024;2023-10-13T05:26:59;17.24;93.80
72128;DHT22;60000;51.030;7.024;2023-10-13T05:29:45;17.27;93.78
72128;DHT22;60000;51.030;7.024;2023-10-13T05:32:30;17.27;93.84
72128;DHT22;60000;51.030;7.024;2023-10-13T05:35:15;17.31;93.84
72128;DHT22;60000;51.030;7.024;2023-10-13T05:37:59;17.31;93.80
72128;DHT22;60000;51.030;7.024;2023-10-13T05:40:58;17.31;93.86
72128;DHT22;60000;51.030;7.024;2023-10-13T05:43:42;17.34;93.91
72128;DHT22;60000;51.030;7.024;2023-10-13T05:46:26;17.32;93.91
72128;DHT22;60000;51.030;7.024;2023-10-13T05:48:53;17.31;93.93
72128;DHT22;60000;51.030;7.024;2023-10-13T05:51:25;17.32;94.01
72128;DHT22;60000;51.030;7.024;2023-10-13T05:54:13;17.36;94.02
72128;DHT22;60000;51.030;7.024;2023-10-13T05:56:46;17.34;94.07
72128;DHT22;60000;51.030;7.024;2023-10-13T05:59:32;17.32;94.13
72128;DHT22;60000;51.030;7.024;2023-10-13T06:02:17;17.31;94.13
72128;DHT22;60000;51.030;7.024;2023-10-13T06:05:02;17.32;94.23
72128;DHT22;60000;51.030;7.024;2023-10-13T06:07:46;17.34;94.26
72128;DHT22;60000;51.030;7.024;2023-10-13T06:10:30;17.31;94.23
72128;DHT22;60000;51.030;7.024;2023-10-13T06:13:14;17.32;94.29
72128;DHT22;60000;51.030;7.024;2023-10-13T06:15:58;17.32;94.32
72128;DHT22;60000;51.030;7.024;2023-10-13T06:18:42;17.32;94.29
72128;DHT22;60000;51.030;7.024;2023-10-13T06:21:26;17.32;94.34
72128;DHT22;60000;51.030;7.024;2023-10-13T06:24:10;17.35;94.39
72128;DHT22;60000;51.030;7.024;2023-10-13T06:26:54;17.36;94.32
72128;DHT22;60000;51.030;7.024;2023-10-13T06:29:38;17.39;94.33
72128;DHT22;60000;51.030;7.024;2023-10-13T06:32:03;17.40;94.38
72128;DHT22;60000;51.030;7.024;2023-10-13T06:34:36;17.42;94.38
72128;DHT22;60000;51.030;7.024;2023-10-13T06:37:16;17.40;94.29
72128;DHT22;60000;51.030;7.024;2023-10-13T06:39:53;17.42;94.29
72128;DHT22;60000;51.030;7.024;2023-10-13T06:42:30;17.45;94.30
72128;DHT22;60000;51.030;7.024;2023-10-13T06:44:59;17.46;94.29
72128;DHT22;60000;51.030;7.024;2023-10-13T06:47:33;17.50;94.26
72128;DHT22;60000;51.030;7.024;2023-10-13T06:49:59;17.52;94.30
72128;DHT22;60000;51.030;7.024;2023-10-13T06:52:25;17.52;94.26
72128;DHT22;60000;51.030;7.024;2023-10-13T06:54:54;17.53;94.24
72128;DHT22;60000;51.030;7.024;2023-10-13T06:57:21;17.58;94.24
72128;DHT22;60000;51.030;7.024;2023-10-13T06:59:47;17.61;94.14
72128;DHT22;60000;51.030;7.024;2023-10-13T07:02:12;17.66;94.03
72128;DHT22;60000;51.030;7.024;2023-10-13T07:04:47;17.66;93.95
72128;DHT22;60000;51.030;7.024;2023-10-13T07:07:12;17.68;93.90
72128;DHT22;60000;51.030;7.024;2023-10-13T07:09:41;17.72;93.82
72128;DHT22;60000;51.030;7.024;2023-10-13T07:12:15;17.73;93.78
72128;DHT22;60000;51.030;7.024;2023-10-13T07:14:50;17.75;93.63
72128;DHT22;60000;51.030;7.024;2023-10-13T07:17:36;17.80;93.55
72128;DHT22;60000;51.030;7.024;2023-10-13T07:20:05;17.85;93.50
72128;DHT22;60000;51.030;7.024;2023-10-13T07:22:57;17.89;93.46
72128;DHT22;60000;51.030;7.024;2023-10-13T07:25:29;17.91;93.34
72128;DHT22;60000;51.030;7.024;2023-10-13T07:28:00;17.94;93.23
72128;DHT22;60000;51.030;7.024;2023-10-13T07:30:26;17.97;93.17
72128;DHT22;60000;51.030;7.024;2023-10-13T07:32:52;17.97;93.11
72128;DHT22;60000;51.030;7.024;2023-10-13T07:35:19;18.03;93.10
72128;DHT22;60000;51.030;7.024;2023-10-13T07:37:46;18.04;93.03
72128;DHT22;60000;51.030;7.024;2023-10-13T07:40:17;18.07;92.97
72128;DHT22;60000;51.030;7.024;2023-10-13T07:42:52;18.10;92.83
72128;DHT22;60000;51.030;7.024;2023-10-13T07:45:17;18.11;92.74
72128;DHT22;60000;51.030;7.024;2023-10-13T07:47:46;18.17;92.75
72128;DHT22;60000;51.030;7.024;2023-10-13T07:50:12;18.21;92.70
72128;DHT22;60000;51.030;7.024;2023-10-13T07:52:38;18.23;92.66
72128;DHT22;60000;51.030;7.024;2023-10-13T07:55:07;18.24;92.62
72128;DHT22;60000;51.030;7.024;2023-10-13T07:57:39;18.26;92.62
72128;DHT22;60000;51.030;7.024;2023-10-13T08:00:20;18.31;92.60
72128;DHT22;60000;51.030;7.024;2023-10-13T08:03:04;18.36;92.47
72128;DHT22;60000;51.030;7.024;2023-10-13T08:05:35;18.40;92.44
72128;DHT22;60000;51.030;7.024;2023-10-13T08:08:18;18.44;92.37
72128;DHT22;60000;51.030;7.024;2023-10-13T08:10:44;18.51;92.35
72128;DHT22;60000;51.030;7.024;2023-10-13T08:13:11;18.57;92.32
72128;DHT22;60000;51.030;7.024;2023-10-13T08:15:41;18.64;92.17
72128;DHT22;60000;51.030;7.024;2023-10-13T08:18:13;18.71;92.15
72128;DHT22;60000;51.030;7.024;2023-10-13T08:21:00;18.73;91.97
72128;DHT22;60000;51.030;7.024;2023-10-13T08:23:28;18.76;91.76
72128;DHT22;60000;51.030;7.024;2023-10-13T08:26:13;18.84;91.63
72128;DHT22;60000;51.030;7.024;2023-10-13T08:29:01;18.86;91.51
72128;DHT22;60000;51.030;7.024;2023-10-13T08:31:48;18.92;91.25
72128;DHT22;60000;51.030;7.024;2023-10-13T08:34:30;18.96;91.18
72128;DHT22;60000;51.030;7.024;2023-10-13T08:37:06;18.99;91.20
72128;DHT22;60000;51.030;7.024;2023-10-13T08:39:54;19.06;90.98
72128;DHT22;60000;51.030;7.024;2023-10-13T08:47:54;19.23;90.63
72128;DHT22;60000;51.030;7.024;2023-10-13T08:53:15;19.36;89.93
72128;DHT22;60000;51.030;7.024;2023-10-13T08:58:43;19.49;89.56
72128;DHT22;60000;51.030;7.024;2023-10-13T09:01:31;19.55;89.57
72128;DHT22;60000;51.030;7.024;2023-10-13T09:04:10;19.61;89.31
72128;DHT22;60000;51.030;7.024;2023-10-13T09:07:15;19.68;89.10
72128;DHT22;60000;51.030;7.024;2023-10-13T09:09:48;19.75;88.77
72128;DHT22;60000;51.030;7.024;2023-10-13T09:12:23;19.88;88.79
72128;DHT22;60000;51.030;7.024;2023-10-13T09:15:09;20.15;88.83
72128;DHT22;60000;51.030;7.024;2023-10-13T09:17:41;20.43;87.77
72128;DHT22;60000;51.030;7.024;2023-10-13T09:20:09;20.62;86.43
72128;DHT22;60000;51.030;7.024;2023-10-13T09:22:50;20.94;86.11
72128;DHT22;60000;51.030;7.024;2023-10-13T09:25:28;21.07;83.79
72128;DHT22;60000;51.030;7.024;2023-10-13T09:28:03;21.27;83.00
72128;DHT22;60000;51.030;7.024;2023-10-13T09:30:46;21.51;81.62
72128;DHT22;60000;51.030;7.024;2023-10-13T09:33:11;21.56;78.99
72128;DHT22;60000;51.030;7.024;2023-10-13T09:35:46;21.49;77.46
72128;DHT22;60000;51.030;7.024;2023-10-13T09:38:18;21.66;78.17
72128;DHT22;60000;51.030;7.024;2023-10-13T09:40:44;21.75;75.92
72128;DHT22;60000;51.030;7.024;2023-10-13T09:43:18;21.88;75.49
72128;DHT22;60000;51.030;7.024;2023-10-13T09:45:46;22.00;74.51
72128;DHT22;60000;51.030;7.024;2023-10-13T09:48:35;22.07;74.15
72128;DHT22;60000;51.030;7.024;2023-10-13T09:51:03;22.17;73.18
72128;DHT22;60000;51.030;7.024;2023-10-13T09:53:34;22.25;72.41
72128;DHT22;60000;51.030;7.024;2023-10-13T09:56:14;22.34;71.86
72128;DHT22;60000;51.030;7.024;2023-10-13T09:58:58;22.45;71.78
72128;DHT22;60000;51.030;7.024;2023-10-13T10:01:27;22.57;70.78
72128;DHT22;60000;51.030;7.024;2023-10-13T10:06:34;22.61;69.47
72128;DHT22;60000;51.030;7.024;2023-10-13T10:09:10;22.58;68.66
72128;DHT22;60000;51.030;7.024;2023-10-13T10:12:01;22.60;68.55
72128;DHT22;60000;51.030;7.024;2023-10-13T10:17:08;22.55;68.80
72128;DHT22;60000;51.030;7.024;2023-10-13T10:19:52;22.51;68.60
72128;DHT22;60000;51.030;7.024;2023-10-13T10:22:32;22.51;68.67
72128;DHT22;60000;51.030;7.024;2023-10-13T10:25:04;22.73;68.22
72128;DHT22;60000;51.030;7.024;2023-10-13T10:27:55;22.88;67.71
72128;DHT22;60000;51.030;7.024;2023-10-13T10:30:28;22.88;66.52
72128;DHT22;60000;51.030;7.024;2023-10-13T10:32:56;23.06;66.54
72128;DHT22;60000;51.030;7.024;2023-10-13T10:35:25;23.15;66.20
72128;DHT22;60000;51.030;7.024;2023-10-13T10:38:10;23.09;65.78
72128;DHT22;60000;51.030;7.024;2023-10-13T10:43:38;23.09;66.37
72128;DHT22;60000;51.030;7.024;2023-10-13T10:46:17;23.08;66.28
72128;DHT22;60000;51.030;7.024;2023-10-13T10:48:44;23.09;66.58
72128;DHT22;60000;51.030;7.024;2023-10-13T10:51:10;23.08;65.65
72128;DHT22;60000;51.030;7.024;2023-10-13T10:53:52;23.02;66.24
72128;DHT22;60000;51.030;7.024;2023-10-13T10:56:27;22.95;66.49
72128;DHT22;60000;51.030;7.024;2023-10-13T10:59:02;22.95;65.54
72128;DHT22;60000;51.030;7.024;2023-10-13T11:01:33;22.92;65.59
72128;DHT22;60000;51.030;7.024;2023-10-13T11:04:06;22.91;65.85
72128;DHT22;60000;51.030;7.024;2023-10-13T11:06:54;22.88;66.00
72128;DHT22;60000;51.030;7.024;2023-10-13T11:09:29;22.88;65.73
72128;DHT22;60000;51.030;7.024;2023-10-13T11:12:09;22.88;65.77
72128;DHT22;60000;51.030;7.024;2023-10-13T11:14:42;23.03;66.30
72128;DHT22;60000;51.030;7.024;2023-10-13T11:17:07;23.10;65.83
72128;DHT22;60000;51.030;7.024;2023-10-13T11:19:44;23.10;65.64
72128;DHT22;60000;51.030;7.024;2023-10-13T11:22:17;23.10;65.43
72128;DHT22;60000;51.030;7.024;2023-10-13T11:25:05;23.09;64.96
72128;DHT22;60000;51.030;7.024;2023-10-13T11:27:41;23.10;65.11
72128;DHT22;60000;51.030;7.024;2023-10-13T11:30:21;23.09;64.79
72128;DHT22;60000;51.030;7.024;2023-10-13T11:33:07;23.03;64.45
72128;DHT22;60000;51.030;7.024;2023-10-13T11:35:33;22.99;64.16
72128;DHT22;60000;51.030;7.024;2023-10-13T11:38:21;22.95;64.01
72128;DHT22;60000;51.030;7.024;2023-10-13T11:41:00;22.91;63.93
72128;DHT22;60000;51.030;7.024;2023-10-13T11:43:38;22.87;63.84
72128;DHT22;60000;51.030;7.024;2023-10-13T11:46:07;22.88;63.63
72128;DHT22;60000;51.030;7.024;2023-10-13T11:48:41;22.88;64.11
72128;DHT22;60000;51.030;7.024;2023-10-13T11:51:14;22.89;63.84
72128;DHT22;60000;51.030;7.024;2023-10-13T11:53:45;22.94;64.15
72128;DHT22;60000;51.030;7.024;2023-10-13T11:56:16;22.95;63.94
72128;DHT22;60000;51.030;7.024;2023-10-13T11:58:42;22.98;63.91
72128;DHT22;60000;51.030;7.024;2023-10-13T12:01:07;23.02;63.70
72128;DHT22;60000;51.030;7.024;2023-10-13T12:03:47;23.05;63.41
72128;DHT22;60000;51.030;7.024;2023-10-13T12:06:32;23.06;63.35
72128;DHT22;60000;51.030;7.024;2023-10-13T12:08:58;23.06;62.91
72128;DHT22;60000;51.030;7.024;2023-10-13T12:11:36;23.05;63.00
72128;DHT22;60000;51.030;7.024;2023-10-13T12:14:04;23.02;62.50
72128;DHT22;60000;51.030;7.024;2023-10-13T12:16:42;22.99;62.40
72128;DHT22;60000;51.030;7.024;2023-10-13T12:19:07;22.98;62.43
72128;DHT22;60000;51.030;7.024;2023-10-13T12:21:36;22.96;62.47
72128;DHT22;60000;51.030;7.024;2023-10-13T12:24:03;22.96;62.29
72128;DHT22;60000;51.030;7.024;2023-10-13T12:26:28;22.96;62.16
72128;DHT22;60000;51.030;7.024;2023-10-13T12:28:58;22.92;62.66
72128;DHT22;60000;51.030;7.024;2023-10-13T12:31:31;22.87;62.64
72128;DHT22;60000;51.030;7.024;2023-10-13T12:33:57;22.84;62.65
72128;DHT22;60000;51.030;7.024;2023-10-13T12:36:31;22.85;62.76
72128;DHT22;60000;51.030;7.024;2023-10-13T12:39:06;22.82;62.50
72128;DHT22;60000;51.030;7.024;2023-10-13T12:41:31;22.78;62.72
72128;DHT22;60000;51.030;7.024;2023-10-13T12:44:15;22.75;62.77
72128;DHT22;60000;51.030;7.024;2023-10-13T12:46:59;22.71;62.30
72128;DHT22;60000;51.030;7.024;2023-10-13T12:49:43;22.67;62.46
72128;DHT22;60000;51.030;7.024;2023-10-13T12:52:09;22.68;62.24
72128;DHT22;60000;51.030;7.024;2023-10-13T12:54:57;22.68;62.43
72128;DHT22;60000;51.030;7.024;2023-10-13T12:57:26;22.64;61.68
72128;DHT22;60000;51.030;7.024;2023-10-13T12:59:52;22.67;61.58
72128;DHT22;60000;51.030;7.024;2023-10-13T13:02:22;22.67;61.31
72128;DHT22;60000;51.030;7.024;2023-10-13T13:04:50;22.67;61.24
72128;DHT22;60000;51.030;7.024;2023-10-13T13:07:42;22.65;61.30
72128;DHT22;60000;51.030;7.024;2023-10-13T13:10:17;22.62;60.65
72128;DHT22;60000;51.030;7.024;2023-10-13T13:12:43;22.68;60.66
72128;DHT22;60000;51.030;7.024;2023-10-13T13:15:08;22.68;60.72
72128;DHT22;60000;51.030;7.024;2023-10-13T13:17:40;22.67;60.42
72128;DHT22;60000;51.030;7.024;2023-10-13T13:20:06;22.67;59.72
72128;DHT22;60000;51.030;7.024;2023-10-13T13:22:55;22.68;60.31
72128;DHT22;60000;51.030;7.024;2023-10-13T13:25:21;22.69;60.18
72128;DHT22;60000;51.030;7.024;2023-10-13T13:27:55;22.65;60.33
72128;DHT22;60000;51.030;7.024;2023-10-13T13:30:20;22.64;60.23
72128;DHT22;60000;51.030;7.024;2023-10-13T13:32:47;22.65;59.91
72128;DHT22;60000;51.030;7.024;2023-10-13T13:35:13;22.64;60.15
72128;DHT22;60000;51.030;7.024;2023-10-13T13:37:43;22.65;59.86
72128;DHT22;60000;51.030;7.024;2023-10-13T13:40:10;22.64;59.89
72128;DHT22;60000;51.030;7.024;2023-10-13T13:42:44;22.64;59.99
72128;DHT22;60000;51.030;7.024;2023-10-13T13:45:16;22.68;60.68
72128;DHT22;60000;51.030;7.024;2023-10-13T13:47:52;22.65;61.16
72128;DHT22;60000;51.030;7.024;2023-10-13T13:50:27;22.57;61.39
72128;DHT22;60000;51.030;7.024;2023-10-13T13:52:54;22.48;61.85
72128;DHT22;60000;51.030;7.024;2023-10-13T13:55:22;22.43;62.15
72128;DHT22;60000;51.030;7.024;2023-10-13T13:57:47;22.33;61.89
72128;DHT22;60000;51.030;7.024;2023-10-13T14:00:15;22.31;61.92
72128;DHT22;60000;51.030;7.024;2023-10-13T14:03:00;22.34;61.61
72128;DHT22;60000;51.030;7.024;2023-10-13T14:05:25;22.40;60.75
72128;DHT22;60000;51.030;7.024;2023-10-13T14:07:54;22.48;61.00
72128;DHT22;60000;51.030;7.024;2023-10-13T14:10:20;22.45;60.69
72128;DHT22;60000;51.030;7.024;2023-10-13T14:13:01;22.47;60.94
72128;DHT22;60000;51.030;7.024;2023-10-13T14:15:38;22.45;61.35
72128;DHT22;60000;51.030;7.024;2023-10-13T14:18:12;22.50;60.94
72128;DHT22;60000;51.030;7.024;2023-10-13T14:20:41;22.55;61.08
72128;DHT22;60000;51.030;7.024;2023-10-13T14:23:07;22.55;61.27
72128;DHT22;60000;51.030;7.024;2023-10-13T14:25:35;22.54;61.48
72128;DHT22;60000;51.030;7.024;2023-10-13T14:28:05;22.52;61.55
72128;DHT22;60000;51.030;7.024;2023-10-13T14:30:32;22.47;61.78
72128;DHT22;60000;51.030;7.024;2023-10-13T14:32:57;22.47;61.79
72128;DHT22;60000;51.030;7.024;2023-10-13T14:35:26;22.44;62.10
72128;DHT22;60000;51.030;7.024;2023-10-13T14:37:52;22.41;62.09
72128;DHT22;60000;51.030;7.024;2023-10-13T14:40:18;22.44;61.72
72128;DHT22;60000;51.030;7.024;2023-10-13T14:42:47;22.44;62.00
72128;DHT22;60000;51.030;7.024;2023-10-13T14:45:13;22.43;62.55
72128;DHT22;60000;51.030;7.024;2023-10-13T14:47:42;22.38;62.90
72128;DHT22;60000;51.030;7.024;2023-10-13T14:50:09;22.34;62.86
72128;DHT22;60000;51.030;7.024;2023-10-13T14:52:47;22.29;63.06
72128;DHT22;60000;51.030;7.024;2023-10-13T14:55:13;22.25;63.08
72128;DHT22;60000;51.030;7.024;2023-10-13T14:57:47;22.17;63.02
72128;DHT22;60000;51.030;7.024;2023-10-13T15:00:13;22.16;62.79
72128;DHT22;60000;51.030;7.024;2023-10-13T15:02:40;22.14;62.87
72128;DHT22;60000;51.030;7.024;2023-10-13T15:05:11;22.13;62.69
72128;DHT22;60000;51.030;7.024;2023-10-13T15:07:45;22.09;62.76
72128;DHT22;60000;51.030;7.024;2023-10-13T15:10:14;22.07;62.52
72128;DHT22;60000;51.030;7.024;2023-10-13T15:12:42;22.11;62.22
72128;DHT22;60000;51.030;7.024;2023-10-13T15:15:10;22.13;61.36
72128;DHT22;60000;51.030;7.024;2023-10-13T15:17:45;22.18;61.54
72128;DHT22;60000;51.030;7.024;2023-10-13T15:20:10;22.09;61.75
72128;DHT22;60000;51.030;7.024;2023-10-13T15:22:42;22.10;60.71
72128;DHT22;60000;51.030;7.024;2023-10-13T15:25:07;22.07;60.64
72128;DHT22;60000;51.030;7.024;2023-10-13T15:27:59;22.13;60.19
72128;DHT22;60000;51.030;7.024;2023-10-13T15:30:28;22.10;59.84
72128;DHT22;60000;51.030;7.024;2023-10-13T15:33:08;22.09;59.93
72128;DHT22;60000;51.030;7.024;2023-10-13T15:35:33;22.07;59.53
72128;DHT22;60000;51.030;7.024;2023-10-13T15:37:58;22.10;59.02
72128;DHT22;60000;51.030;7.024;2023-10-13T15:40:23;22.10;59.04
72128;DHT22;60000;51.030;7.024;2023-10-13T15:42:52;22.10;59.14
72128;DHT22;60000;51.030;7.024;2023-10-13T15:45:24;22.09;58.88
72128;DHT22;60000;51.030;7.024;2023-10-13T15:47:50;22.09;58.95
72128;DHT22;60000;51.030;7.024;2023-10-13T15:50:15;22.14;59.03
72128;DHT22;60000;51.030;7.024;2023-10-13T15:52:43;22.10;59.65
72128;DHT22;60000;51.030;7.024;2023-10-13T15:55:15;22.07;60.35
72128;DHT22;60000;51.030;7.024;2023-10-13T15:57:43;21.97;61.02
72128;DHT22;60000;51.030;7.024;2023-10-13T16:00:10;21.88;61.50
72128;DHT22;60000;51.030;7.024;2023-10-13T16:02:57;21.83;60.90
72128;DHT22;60000;51.030;7.024;2023-10-13T16:05:29;21.80;60.98
72128;DHT22;60000;51.030;7.024;2023-10-13T16:07:54;21.79;60.77
72128;DHT22;60000;51.030;7.024;2023-10-13T16:10:26;21.78;60.73
72128;DHT22;60000;51.030;7.024;2023-10-13T16:12:52;21.76;60.51
72128;DHT22;60000;51.030;7.024;2023-10-13T16:15:18;21.76;60.30
72128;DHT22;60000;51.030;7.024;2023-10-13T16:17:46;21.75;60.36
72128;DHT22;60000;51.030;7.024;2023-10-13T16:20:12;21.76;60.22
72128;DHT22;60000;51.030;7.024;2023-10-13T16:22:42;21.75;60.12
72128;DHT22;60000;51.030;7.024;2023-10-13T16:25:09;21.76;60.12
72128;DHT22;60000;51.030;7.024;2023-10-13T16:27:37;21.76;60.23
72128;DHT22;60000;51.030;7.024;2023-10-13T16:30:06;21.76;60.58